sensor_id;sensor_type;location;lat;lon;timestamp;pressure;altitude;pressure_sealevel;temperature;humidity
27984;BME280;15317;50.360;8.726;2023-09-19T00:03:52;98915.19;;;16.15;100.00
27984;BME280;15317;50.360;8.726;2023-09-19T00:08:55;98922.78;;;16.13;100.00
27984;BME280;15317;50.360;8.726;2023-09-19T00:14:02;98936.06;;;16.16;100.00
27984;BME280;15317;50.360;8.726;2023-09-19T00:19:07;98947.25;;;16.22;100.00
27984;BME280;15317;50.360;8.726;2023-09-19T00:24:11;98936.91;;;16.24;100.00
27984;BME280;15317;50.360;8.726;2023-09-19T00:29:17;98940.91;;;16.28;100.00
27984;BME280;15317;50.360;8.726;2023-09-19T00:34:20;98943.25;;;16.31;100.00
27984;BME280;15317;50.360;8.726;2023-09-19T00:39:23;98946.59;;;16.26;100.00
27984;BME280;15317;50.360;8.726;2023-09-19T00:44:29;98955.88;;;16.25;100.00
27984;BME280;15317;50.360;8.726;2023-09-19T00:49:32;98965.78;;;16.26;100.00
27984;BME280;15317;50.360;8.726;2023-09-19T00:54:36;98961.78;;;16.29;100.00
27984;BME280;15317;50.360;8.726;2023-09-19T00:59:41;98964.53;;;16.29;100.00
27984;BME280;15317;50.360;8.726;2023-09-19T01:04:45;98974.00;;;16.26;100.00
27984;BME280;15317;50.360;8.726;2023-09-19T01:09:48;98980.31;;;16.27;100.00
27984;BME280;15317;50.360;8.726;2023-09-19T01:14:55;98991.09;;;16.28;100.00
27984;BME280;15317;50.360;8.726;2023-09-19T01:20:15;98994.47;;;16.24;100.00
27984;BME280;15317;50.360;8.726;2023-09-19T01:25:33;99003.09;;;16.20;100.00
27984;BME280;15317;50.360;8.726;2023-09-19T01:30:43;99009.41;;;16.14;100.00
27984;BME280;15317;50.360;8.726;2023-09-19T01:35:47;99009.38;;;16.01;100.00
27984;BME280;15317;50.360;8.726;2023-09-19T01:40:57;99007.63;;;15.87;100.00
27984;BME280;15317;50.360;8.726;2023-09-19T01:46:10;99017.25;;;15.70;100.00
27984;BME280;15317;50.360;8.726;2023-09-19T01:51:20;99017.19;;;15.57;100.00
27984;BME280;15317;50.360;8.726;2023-09-19T01:56:28;99027.41;;;15.41;100.00
27984;BME280;15317;50.360;8.726;2023-09-19T02:01:39;99031.72;;;15.29;100.00
27984;BME280;15317;50.360;8.726;2023-09-19T02:06:44;99043.91;;;15.20;100.00
27984;BME280;15317;50.360;8.726;2023-09-19T02:11:49;99043.00;;;15.13;100.00
27984;BME280;15317;50.360;8.726;2023-09-19T02:16:54;99045.19;;;14.96;100.00
27984;BME280;15317;50.360;8.726;2023-09-19T02:21:57;99063.38;;;14.83;100.00
27984;BME280;15317;50.360;8.726;2023-09-19T02:27:00;99059.50;;;14.71;100.00
27984;BME280;15317;50.360;8.726;2023-09-19T02:32:07;99053.91;;;14.57;100.00
27984;BME280;15317;50.360;8.726;2023-09-19T02:37:12;99052.59;;;14.53;100.00
27984;BME280;15317;50.360;8.726;2023-09-19T02:42:18;99058.06;;;14.53;100.00
27984;BME280;15317;50.360;8.726;2023-09-19T02:47:23;99048.97;;;14.46;100.00
27984;BME280;15317;50.360;8.726;2023-09-19T02:52:26;99063.75;;;14.37;100.00
27984;BME280;15317;50.360;8.726;2023-09-19T02:57:30;99065.56;;;14.30;100.00
27984;BME280;15317;50.360;8.726;2023-09-19T03:02:36;99069.09;;;14.24;100.00
27984;BME280;15317;50.360;8.726;2023-09-19T03:07:42;99075.31;;;14.18;100.00
27984;BME280;15317;50.360;8.726;2023-09-19T03:12:48;99079.19;;;14.09;100.00
27984;BME280;15317;50.360;8.726;2023-09-19T03:17:52;99078.94;;;14.04;100.00
27984;BME280;15317;50.360;8.726;2023-09-19T03:22:56;99081.41;;;13.99;100.00
27984;BME280;15317;50.360;8.726;2023-09-19T03:28:00;99091.41;;;13.92;100.00
27984;BME280;15317;50.360;8.726;2023-09-19T03:33:04;99093.47;;;13.90;100.00
27984;BME280;15317;50.360;8.726;2023-09-19T03:38:08;99098.53;;;13.93;100.00
27984;BME280;15317;50.360;8.726;2023-09-19T03:43:12;99091.09;;;14.01;100.00
27984;BME280;15317;50.360;8.726;2023-09-19T03:48:17;99087.31;;;14.02;100.00
27984;BME280;15317;50.360;8.726;2023-09-19T03:53:21;99091.25;;;14.00;100.00
27984;BME280;15317;50.360;8.726;2023-09-19T03:58:25;99095.44;;;13.96;100.00
27984;BME280;15317;50.360;8.726;2023-09-19T04:03:30;99097.38;;;14.02;100.00
27984;BME280;15317;50.360;8.726;2023-09-19T04:08:47;99095.84;;;14.14;100.00
27984;BME280;15317;50.360;8.726;2023-09-19T04:13:51;99101.19;;;14.22;100.00
27984;BME280;15317;50.360;8.726;2023-09-19T04:18:56;99109.38;;;14.37;100.00
27984;BME280;15317;50.360;8.726;2023-09-19T04:23:59;99121.44;;;14.42;100.00
27984;BME280;15317;50.360;8.726;2023-09-19T04:29:02;99124.91;;;14.51;100.00
27984;BME280;15317;50.360;8.726;2023-09-19T04:34:09;99104.78;;;14.58;100.00
27984;BME280;15317;50.360;8.726;2023-09-19T04:39:13;99118.97;;;14.69;100.00
27984;BME280;15317;50.360;8.726;2023-09-19T04:44:16;99119.88;;;14.76;100.00
27984;BME280;15317;50.360;8.726;2023-09-19T04:49:22;99122.00;;;14.74;100.00
27984;BME280;15317;50.360;8.726;2023-09-19T04:54:25;99124.72;;;14.74;100.00
27984;BME280;15317;50.360;8.726;2023-09-19T04:59:29;99123.41;;;14.70;100.00
27984;BME280;15317;50.360;8.726;2023-09-19T05:04:34;99137.31;;;14.75;100.00
27984;BME280;15317;50.360;8.726;2023-09-19T05:09:38;99134.88;;;14.80;100.00
27984;BME280;15317;50.360;8.726;2023-09-19T05:14:41;99141.63;;;14.84;100.00
27984;BME280;15317;50.360;8.726;2023-09-19T05:19:46;99148.38;;;14.88;100.00
27984;BME280;15317;50.360;8.726;2023-09-19T05:24:50;99147.34;;;14.89;100.00
27984;BME280;15317;50.360;8.726;2023-09-19T05:29:54;99149.28;;;14.95;100.00
27984;BME280;15317;50.360;8.726;2023-09-19T05:34:59;99151.28;;;15.01;100.00
27984;BME280;15317;50.360;8.726;2023-09-19T05:40:04;99159.91;;;15.05;100.00
27984;BME280;15317;50.360;8.726;2023-09-19T05:45:13;99153.59;;;15.04;100.00
27984;BME280;15317;50.360;8.726;2023-09-19T05:50:22;99155.47;;;15.03;100.00
27984;BME280;15317;50.360;8.726;2023-09-19T05:55:27;99164.41;;;15.12;100.00
27984;BME280;15317;50.360;8.726;2023-09-19T06:00:30;99163.81;;;15.17;100.00
27984;BME280;15317;50.360;8.726;2023-09-19T06:05:35;99175.59;;;15.17;100.00
27984;BME280;15317;50.360;8.726;2023-09-19T06:10:43;99176.50;;;15.24;100.00
27984;BME280;15317;50.360;8.726;2023-09-19T06:15:48;99180.34;;;15.30;100.00
27984;BME280;15317;50.360;8.726;2023-09-19T06:20:54;99200.84;;;15.40;100.00
27984;BME280;15317;50.360;8.726;2023-09-19T06:25:57;99200.66;;;15.42;100.00
27984;BME280;15317;50.360;8.726;2023-09-19T06:31:02;99208.53;;;15.52;100.00
27984;BME280;15317;50.360;8.726;2023-09-19T06:36:13;99214.69;;;15.54;100.00
27984;BME280;15317;50.360;8.726;2023-09-19T06:41:18;99217.00;;;15.57;100.00
27984;BME280;15317;50.360;8.726;2023-09-19T06:46:21;99222.75;;;15.62;100.00
27984;BME280;15317;50.360;8.726;2023-09-19T06:51:26;99220.66;;;15.64;100.00
27984;BME280;15317;50.360;8.726;2023-09-19T06:56:29;99226.22;;;15.77;100.00
27984;BME280;15317;50.360;8.726;2023-09-19T07:01:34;99237.22;;;15.84;100.00
27984;BME280;15317;50.360;8.726;2023-09-19T07:06:41;99247.03;;;15.99;100.00
27984;BME280;15317;50.360;8.726;2023-09-19T07:11:44;99244.13;;;16.07;100.00
27984;BME280;15317;50.360;8.726;2023-09-19T07:16:49;99262.28;;;16.08;100.00
27984;BME280;15317;50.360;8.726;2023-09-19T07:21:55;99253.53;;;16.26;100.00
27984;BME280;15317;50.360;8.726;2023-09-19T07:26:59;99260.28;;;16.24;100.00
27984;BME280;15317;50.360;8.726;2023-09-19T07:32:03;99271.94;;;16.39;100.00
27984;BME280;15317;50.360;8.726;2023-09-19T07:37:09;99282.13;;;16.51;100.00
27984;BME280;15317;50.360;8.726;2023-09-19T07:42:13;99284.25;;;16.56;100.00
27984;BME280;15317;50.360;8.726;2023-09-19T07:47:20;99283.38;;;16.83;100.00
27984;BME280;15317;50.360;8.726;2023-09-19T07:52:24;99288.28;;;17.01;100.00
27984;BME280;15317;50.360;8.726;2023-09-19T07:57:30;99279.66;;;17.11;100.00
27984;BME280;15317;50.360;8.726;2023-09-19T08:02:34;99282.25;;;17.32;100.00
27984;BME280;15317;50.360;8.726;2023-09-19T08:07:43;99288.81;;;17.44;100.00
27984;BME280;15317;50.360;8.726;2023-09-19T08:12:48;99296.38;;;17.35;96.73
27984;BME280;15317;50.360;8.726;2023-09-19T08:17:58;99300.22;;;17.48;95.94
27984;BME280;15317;50.360;8.726;2023-09-19T08:23:03;99298.38;;;17.74;90.38
27984;BME280;15317;50.360;8.726;2023-09-19T08:28:08;99311.69;;;17.84;86.28
27984;BME280;15317;50.360;8.726;2023-09-19T08:33:14;99302.19;;;17.73;87.31
27984;BME280;15317;50.360;8.726;2023-09-19T08:38:19;99319.50;;;18.27;90.52
27984;BME280;15317;50.360;8.726;2023-09-19T08:43:22;99323.47;;;18.50;81.55
27984;BME280;15317;50.360;8.726;2023-09-19T08:48:27;99312.53;;;19.08;89.22
27984;BME280;15317;50.360;8.726;2023-09-19T08:53:38;99314.97;;;18.72;84.89
27984;BME280;15317;50.360;8.726;2023-09-19T08:58:46;99312.06;;;18.53;78.42
27984;BME280;15317;50.360;8.726;2023-09-19T09:03:51;99328.09;;;19.27;72.60
27984;BME280;15317;50.360;8.726;2023-09-19T09:08:57;99320.16;;;19.51;66.19
27984;BME280;15317;50.360;8.726;2023-09-19T09:14:01;99330.59;;;19.73;69.79
27984;BME280;15317;50.360;8.726;2023-09-19T09:19:05;99322.63;;;19.59;66.73
27984;BME280;15317;50.360;8.726;2023-09-19T09:24:27;99323.97;;;19.81;71.08
27984;BME280;15317;50.360;8.726;2023-09-19T09:29:41;99322.84;;;20.13;64.19
27984;BME280;15317;50.360;8.726;2023-09-19T09:34:44;99322.72;;;20.27;66.86
27984;BME280;15317;50.360;8.726;2023-09-19T09:39:54;99323.66;;;20.64;63.44
27984;BME280;15317;50.360;8.726;2023-09-19T09:45:14;99322.53;;;20.89;58.28
27984;BME280;15317;50.360;8.726;2023-09-19T09:50:25;99343.53;;;20.72;58.51
27984;BME280;15317;50.360;8.726;2023-09-19T09:56:01;99336.00;;;20.61;57.54
27984;BME280;15317;50.360;8.726;2023-09-19T10:01:08;99337.41;;;21.25;57.72
27984;BME280;15317;50.360;8.726;2023-09-19T10:06:13;99339.66;;;21.46;58.51
27984;BME280;15317;50.360;8.726;2023-09-19T10:11:30;99329.47;;;21.47;61.65
27984;BME280;15317;50.360;8.726;2023-09-19T10:16:35;99337.78;;;21.58;52.47
27984;BME280;15317;50.360;8.726;2023-09-19T10:21:40;99335.50;;;21.55;57.04
27984;BME280;15317;50.360;8.726;2023-09-19T10:26:47;99323.63;;;21.37;55.61
27984;BME280;15317;50.360;8.726;2023-09-19T10:31:53;99311.84;;;21.11;57.04
27984;BME280;15317;50.360;8.726;2023-09-19T10:36:57;99317.03;;;21.67;58.43
27984;BME280;15317;50.360;8.726;2023-09-19T10:42:03;99308.16;;;22.42;58.23
27984;BME280;15317;50.360;8.726;2023-09-19T10:47:09;99319.69;;;22.27;49.69
27984;BME280;15317;50.360;8.726;2023-09-19T10:52:14;99323.53;;;21.43;56.21
27984;BME280;15317;50.360;8.726;2023-09-19T10:57:23;99330.41;;;20.68;53.23
27984;BME280;15317;50.360;8.726;2023-09-19T11:02:27;99323.22;;;20.67;52.20
27984;BME280;15317;50.360;8.726;2023-09-19T11:07:31;99320.22;;;20.68;52.73
27984;BME280;15317;50.360;8.726;2023-09-19T11:12:51;99314.03;;;20.73;56.64
27984;BME280;15317;50.360;8.726;2023-09-19T11:17:56;99311.00;;;21.11;55.04
27984;BME280;15317;50.360;8.726;2023-09-19T11:23:23;99308.25;;;21.11;53.36
27984;BME280;15317;50.360;8.726;2023-09-19T11:28:31;99292.38;;;20.70;51.45
27984;BME280;15317;50.360;8.726;2023-09-19T11:33:35;99290.44;;;20.09;56.71
27984;BME280;15317;50.360;8.726;2023-09-19T11:38:59;99284.97;;;20.70;55.96
27984;BME280;15317;50.360;8.726;2023-09-19T11:44:33;99291.84;;;21.16;53.49
27984;BME280;15317;50.360;8.726;2023-09-19T11:49:40;99291.00;;;20.97;52.80
27984;BME280;15317;50.360;8.726;2023-09-19T11:54:45;99282.63;;;21.52;58.14
27984;BME280;15317;50.360;8.726;2023-09-19T11:59:55;99305.97;;;22.09;51.01
27984;BME280;15317;50.360;8.726;2023-09-19T12:05:00;99302.13;;;21.27;54.74
27984;BME280;15317;50.360;8.726;2023-09-19T12:10:05;99311.06;;;21.41;52.53
27984;BME280;15317;50.360;8.726;2023-09-19T12:15:22;99303.94;;;21.15;52.60
27984;BME280;15317;50.360;8.726;2023-09-19T12:20:42;99298.38;;;21.21;52.95
27984;BME280;15317;50.360;8.726;2023-09-19T12:25:52;99292.63;;;20.86;52.61
27984;BME280;15317;50.360;8.726;2023-09-19T12:31:06;99291.84;;;21.16;57.56
27984;BME280;15317;50.360;8.726;2023-09-19T12:36:19;99275.44;;;22.04;56.44
27984;BME280;15317;50.360;8.726;2023-09-19T12:41:27;99282.56;;;23.10;47.78
27984;BME280;15317;50.360;8.726;2023-09-19T12:46:32;99270.44;;;22.88;50.07
27984;BME280;15317;50.360;8.726;2023-09-19T12:51:35;99264.97;;;22.41;49.99
27984;BME280;15317;50.360;8.726;2023-09-19T12:56:39;99267.50;;;21.96;47.87
27984;BME280;15317;50.360;8.726;2023-09-19T13:01:45;99265.91;;;22.00;48.86
27984;BME280;15317;50.360;8.726;2023-09-19T13:06:50;99261.75;;;21.67;52.19
27984;BME280;15317;50.360;8.726;2023-09-19T13:11:53;99260.25;;;21.95;46.93
27984;BME280;15317;50.360;8.726;2023-09-19T13:17:00;99274.63;;;21.74;48.16
27984;BME280;15317;50.360;8.726;2023-09-19T13:22:38;99257.31;;;21.25;50.32
27984;BME280;15317;50.360;8.726;2023-09-19T13:27:43;99255.28;;;21.32;49.34
27984;BME280;15317;50.360;8.726;2023-09-19T13:32:48;99260.31;;;21.05;52.24
27984;BME280;15317;50.360;8.726;2023-09-19T13:37:52;99257.94;;;20.90;49.66
27984;BME280;15317;50.360;8.726;2023-09-19T13:42:56;99238.34;;;21.10;48.46
27984;BME280;15317;50.360;8.726;2023-09-19T13:48:00;99251.78;;;21.66;47.73
27984;BME280;15317;50.360;8.726;2023-09-19T13:53:03;99257.34;;;21.90;49.76
27984;BME280;15317;50.360;8.726;2023-09-19T13:58:07;99239.66;;;21.79;45.04
27984;BME280;15317;50.360;8.726;2023-09-19T14:03:14;99244.34;;;21.79;46.28
27984;BME280;15317;50.360;8.726;2023-09-19T14:08:18;99236.16;;;21.60;45.54
27984;BME280;15317;50.360;8.726;2023-09-19T14:13:21;99236.16;;;21.60;48.62
27984;BME280;15317;50.360;8.726;2023-09-19T14:18:26;99232.09;;;21.75;50.25
27984;BME280;15317;50.360;8.726;2023-09-19T14:23:34;99229.56;;;21.73;46.15
27984;BME280;15317;50.360;8.726;2023-09-19T14:28:38;99220.53;;;21.54;47.49
27984;BME280;15317;50.360;8.726;2023-09-19T14:33:43;99216.06;;;21.65;49.61
27984;BME280;15317;50.360;8.726;2023-09-19T14:38:46;99223.19;;;21.73;48.62
27984;BME280;15317;50.360;8.726;2023-09-19T14:43:50;99207.88;;;21.47;47.18
27984;BME280;15317;50.360;8.726;2023-09-19T14:48:56;99212.75;;;21.03;48.65
27984;BME280;15317;50.360;8.726;2023-09-19T14:54:01;99209.56;;;20.88;48.86
27984;BME280;15317;50.360;8.726;2023-09-19T14:59:05;99205.19;;;20.99;48.32
27984;BME280;15317;50.360;8.726;2023-09-19T15:04:11;99199.16;;;21.02;51.39
27984;BME280;15317;50.360;8.726;2023-09-19T15:09:14;99200.94;;;20.96;48.85
27984;BME280;15317;50.360;8.726;2023-09-19T15:14:20;99193.13;;;20.63;50.21
27984;BME280;15317;50.360;8.726;2023-09-19T15:19:25;99187.13;;;20.30;50.24
27984;BME280;15317;50.360;8.726;2023-09-19T15:24:29;99190.50;;;20.13;50.98
27984;BME280;15317;50.360;8.726;2023-09-19T15:29:33;99184.59;;;20.10;50.87
27984;BME280;15317;50.360;8.726;2023-09-19T15:34:38;99186.75;;;20.08;51.50
27984;BME280;15317;50.360;8.726;2023-09-19T15:39:42;99184.81;;;20.08;51.93
27984;BME280;15317;50.360;8.726;2023-09-19T15:44:47;99183.91;;;19.96;52.60
27984;BME280;15317;50.360;8.726;2023-09-19T15:49:53;99189.16;;;19.80;51.51
27984;BME280;15317;50.360;8.726;2023-09-19T15:54:57;99179.09;;;19.67;52.88
27984;BME280;15317;50.360;8.726;2023-09-19T16:00:00;99191.19;;;19.66;51.53
27984;BME280;15317;50.360;8.726;2023-09-19T16:05:07;99186.41;;;19.55;52.88
27984;BME280;15317;50.360;8.726;2023-09-19T16:10:11;99180.13;;;19.41;54.27
27984;BME280;15317;50.360;8.726;2023-09-19T16:15:17;99172.16;;;19.33;55.24
27984;BME280;15317;50.360;8.726;2023-09-19T16:20:22;99169.06;;;19.23;56.12
27984;BME280;15317;50.360;8.726;2023-09-19T16:25:26;99162.88;;;19.27;55.13
27984;BME280;15317;50.360;8.726;2023-09-19T16:30:31;99174.31;;;19.24;55.61
27984;BME280;15317;50.360;8.726;2023-09-19T16:35:38;99162.56;;;19.17;56.21
27984;BME280;15317;50.360;8.726;2023-09-19T16:40:51;99163.88;;;19.08;57.67
27984;BME280;15317;50.360;8.726;2023-09-19T16:45:55;99157.66;;;18.88;61.43
27984;BME280;15317;50.360;8.726;2023-09-19T16:51:02;99146.22;;;18.84;60.97
27984;BME280;15317;50.360;8.726;2023-09-19T16:56:08;99141.63;;;18.78;60.45
27984;BME280;15317;50.360;8.726;2023-09-19T17:01:13;99148.25;;;18.64;64.01
27984;BME280;15317;50.360;8.726;2023-09-19T17:06:20;99159.38;;;18.31;68.79
27984;BME280;15317;50.360;8.726;2023-09-19T17:11:26;99158.25;;;18.01;72.76
27984;BME280;15317;50.360;8.726;2023-09-19T17:16:29;99168.63;;;17.86;70.17
27984;BME280;15317;50.360;8.726;2023-09-19T17:21:35;99168.19;;;17.56;77.11
27984;BME280;15317;50.360;8.726;2023-09-19T17:26:38;99165.66;;;17.41;75.85
27984;BME280;15317;50.360;8.726;2023-09-19T17:31:44;99176.66;;;17.28;79.14
27984;BME280;15317;50.360;8.726;2023-09-19T17:36:48;99167.38;;;17.42;75.15
27984;BME280;15317;50.360;8.726;2023-09-19T17:41:52;99185.53;;;17.56;74.94
27984;BME280;15317;50.360;8.726;2023-09-19T17:46:55;99176.03;;;17.52;78.04
27984;BME280;15317;50.360;8.726;2023-09-19T17:52:00;99169.25;;;17.35;81.13
27984;BME280;15317;50.360;8.726;2023-09-19T17:57:03;99185.72;;;17.48;77.74
27984;BME280;15317;50.360;8.726;2023-09-19T18:02:07;99179.19;;;17.69;76.89
27984;BME280;15317;50.360;8.726;2023-09-19T18:07:12;99181.34;;;17.73;80.28
27984;BME280;15317;50.360;8.726;2023-09-19T18:12:15;99183.44;;;17.78;77.49
27984;BME280;15317;50.360;8.726;2023-09-19T18:17:19;99189.31;;;17.88;76.78
27984;BME280;15317;50.360;8.726;2023-09-19T18:22:24;99196.94;;;17.86;77.88
27984;BME280;15317;50.360;8.726;2023-09-19T18:27:28;99195.22;;;18.05;75.96
27984;BME280;15317;50.360;8.726;2023-09-19T18:32:32;99200.75;;;17.79;81.19
27984;BME280;15317;50.360;8.726;2023-09-19T18:37:37;99205.78;;;17.55;84.49
27984;BME280;15317;50.360;8.726;2023-09-19T18:42:40;99204.75;;;17.36;83.90
27984;BME280;15317;50.360;8.726;2023-09-19T18:47:43;99211.50;;;17.34;83.07
27984;BME280;15317;50.360;8.726;2023-09-19T18:52:48;99207.91;;;17.27;84.88
27984;BME280;15317;50.360;8.726;2023-09-19T18:57:53;99216.13;;;17.20;84.64
27984;BME280;15317;50.360;8.726;2023-09-19T19:02:56;99216.94;;;17.01;89.07
27984;BME280;15317;50.360;8.726;2023-09-19T19:08:01;99209.56;;;17.02;87.33
27984;BME280;15317;50.360;8.726;2023-09-19T19:13:04;99219.66;;;16.94;88.53
27984;BME280;15317;50.360;8.726;2023-09-19T19:18:07;99210.34;;;16.82;91.46
27984;BME280;15317;50.360;8.726;2023-09-19T19:23:12;99208.88;;;16.86;89.81
27984;BME280;15317;50.360;8.726;2023-09-19T19:28:16;99202.53;;;16.79;91.39
27984;BME280;15317;50.360;8.726;2023-09-19T19:33:20;99214.94;;;16.69;91.76
27984;BME280;15317;50.360;8.726;2023-09-19T19:38:27;99211.69;;;16.58;93.02
27984;BME280;15317;50.360;8.726;2023-09-19T19:43:30;99202.75;;;16.30;98.00
27984;BME280;15317;50.360;8.726;2023-09-19T19:48:34;99210.59;;;16.05;100.00
27984;BME280;15317;50.360;8.726;2023-09-19T19:53:41;99205.78;;;15.73;100.00
27984;BME280;15317;50.360;8.726;2023-09-19T19:58:44;99217.09;;;15.42;100.00
27984;BME280;15317;50.360;8.726;2023-09-19T20:03:47;99226.53;;;15.18;100.00
27984;BME280;15317;50.360;8.726;2023-09-19T20:08:52;99233.88;;;14.96;100.00
27984;BME280;15317;50.360;8.726;2023-09-19T20:13:55;99227.59;;;14.81;100.00
27984;BME280;15317;50.360;8.726;2023-09-19T20:19:01;99249.53;;;14.67;100.00
27984;BME280;15317;50.360;8.726;2023-09-19T20:24:07;99237.59;;;14.53;100.00
27984;BME280;15317;50.360;8.726;2023-09-19T20:29:12;99242.50;;;14.43;100.00
27984;BME280;15317;50.360;8.726;2023-09-19T20:34:16;99238.34;;;14.32;100.00
27984;BME280;15317;50.360;8.726;2023-09-19T20:39:21;99243.25;;;14.22;100.00
27984;BME280;15317;50.360;8.726;2023-09-19T20:44:25;99250.13;;;14.18;100.00
27984;BME280;15317;50.360;8.726;2023-09-19T20:49:30;99246.72;;;14.16;100.00
27984;BME280;15317;50.360;8.726;2023-09-19T20:54:35;99249.47;;;14.31;100.00
27984;BME280;15317;50.360;8.726;2023-09-19T20:59:38;99240.41;;;14.59;100.00
27984;BME280;15317;50.360;8.726;2023-09-19T21:04:42;99247.53;;;14.75;100.00
27984;BME280;15317;50.360;8.726;2023-09-19T21:09:46;99245.53;;;14.84;100.00
27984;BME280;15317;50.360;8.726;2023-09-19T21:14:49;99242.13;;;14.82;100.00
27984;BME280;15317;50.360;8.726;2023-09-19T21:19:54;99237.44;;;14.76;100.00
27984;BME280;15317;50.360;8.726;2023-09-19T21:24:59;99246.41;;;14.70;100.00
27984;BME280;15317;50.360;8.726;2023-09-19T21:30:03;99231.03;;;14.69;100.00
27984;BME280;15317;50.360;8.726;2023-09-19T21:35:07;99233.00;;;14.75;100.00
27984;BME280;15317;50.360;8.726;2023-09-19T21:40:12;99241.88;;;14.77;100.00
27984;BME280;15317;50.360;8.726;2023-09-19T21:45:16;99243.94;;;14.75;100.00
27984;BME280;15317;50.360;8.726;2023-09-19T21:50:19;99243.31;;;14.73;100.00
27984;BME280;15317;50.360;8.726;2023-09-19T21:55:26;99237.84;;;14.73;100.00
27984;BME280;15317;50.360;8.726;2023-09-19T22:00:29;99232.63;;;14.78;100.00
27984;BME280;15317;50.360;8.726;2023-09-19T22:05:40;99223.66;;;14.84;100.00
27984;BME280;15317;50.360;8.726;2023-09-19T22:10:46;99232.53;;;14.86;100.00
27984;BME280;15317;50.360;8.726;2023-09-19T22:15:50;99234.00;;;14.88;100.00
27984;BME280;15317;50.360;8.726;2023-09-19T22:20:58;99224.63;;;14.97;100.00
27984;BME280;15317;50.360;8.726;2023-09-19T22:26:11;99222.34;;;15.22;100.00
27984;BME280;15317;50.360;8.726;2023-09-19T22:31:21;99224.16;;;15.36;100.00
27984;BME280;15317;50.360;8.726;2023-09-19T22:36:27;99223.31;;;15.36;100.00
27984;BME280;15317;50.360;8.726;2023-09-19T22:41:36;99225.69;;;15.39;100.00
27984;BME280;15317;50.360;8.726;2023-09-19T22:46:41;99230.69;;;15.35;100.00
27984;BME280;15317;50.360;8.726;2023-09-19T22:51:45;99224.59;;;15.33;100.00
27984;BME280;15317;50.360;8.726;2023-09-19T22:56:53;99241.78;;;15.27;100.00
27984;BME280;15317;50.360;8.726;2023-09-19T23:01:56;99233.97;;;15.24;100.00
27984;BME280;15317;50.360;8.726;2023-09-19T23:07:01;99229.16;;;15.26;100.00
27984;BME280;15317;50.360;8.726;2023-09-19T23:12:08;99227.56;;;15.38;100.00
27984;BME280;15317;50.360;8.726;2023-09-19T23:17:13;99229.25;;;15.39;100.00
27984;BME280;15317;50.360;8.726;2023-09-19T23:22:18;99232.31;;;15.51;100.00
27984;BME280;15317;50.360;8.726;2023-09-19T23:27:27;99225.63;;;15.54;100.00
27984;BME280;15317;50.360;8.726;2023-09-19T23:32:37;99229.03;;;15.56;100.00
27984;BME280;15317;50.360;8.726;2023-09-19T23:37:41;99229.03;;;15.56;100.00
27984;BME280;15317;50.360;8.726;2023-09-19T23:42:45;99218.47;;;15.53;100.00
27984;BME280;15317;50.360;8.726;2023-09-19T23:47:50;99216.72;;;15.52;100.00
27984;BME280;15317;50.360;8.726;2023-09-19T23:52:53;99229.03;;;15.56;100.00
27984;BME280;15317;50.360;8.726;2023-09-19T23:57:58;99234.50;;;15.56;100.00
